首页
METAR-TAF:

METAR-TAF

机场 :

潘狄頓區域機場

Penticton, 不列颠哥伦比亚, 加拿大

纬度: 49-28N, 经度: 119-36W, 海拔: 344米

当前天气观测

该预报发布于42分钟前的12:00 UTC
风速4节,风向北转东北,在西北东北之间变化
温度 15°C
湿度 72%
气压 1016 hPa
能見度: 24.1公里
多云层高于25000英尺

METAR: CYYF 211200Z 02004KT 320V040 15SM BKN250 15/10 A2999 RMK CI6 SLP155 DENSITY ALT 1300FT

时间: 05:42 (12:42 UTC)

预报

该预报发布于6小时和0分钟前的06:42 UTC
预报有效从21日的 07点(UTC)到 21日的 19点(UTC)
风速8节,风向北转西北
能見度: 10公里
散云层高于25000英尺
成为
从 21日的 07点(UTC)到 21日的 09点(UTC)
风速3节,风向多变

TAF: CYYF 210642Z 2107/2119 34008KT P6SM SCT250 BECMG 2107/2109 VRB03KT RMK NXT FCST BY 211300Z

超过4000个机场的气象观测和天气预报(METAR&TAF报告)。

可查询的气象台以黄色和红色小点在地图上表示。

将鼠标移到小点上方,可查看气象台名称。

然后点击查看天气观测和预报。

如需切换地图:点击带黑十字的绿色按钮放大地图;点击带横线的绿色按钮缩小地图;或者点击绿色箭头查看邻近地区的地图。


METAR-TAF: